Time;durP1;ratioP1;P1;durP2;ratioP2;P2;SDS_P1;SDS_P2;PMS_P1;PMS_P2;Temp;Humidity;BMP_temperature;BMP_pressure;BME280_temperature;BME280_humidity;BME280_pressure;Samples;Min_cycle;Max_cycle;Signal;HPM_P1;HPM_P2
2022/02/04 00:05:13;;;;;;;15.38;8.77;;;;;;;;;;5088796;28;20042;-74
2022/02/04 00:20:05;;;;;;;16.95;9.35;;;;;;;;;;5088854;28;20403;-74
2022/02/04 00:23:43;;;;;;;18.58;9.57;;;;;;;;;;5087372;28;20063;-74
2022/02/04 00:26:19;;;;;;;15.75;9.85;;;;;;;;;;5090225;28;20024;-74
2022/02/04 00:33:59;;;;;;;14.73;7.93;;;;;;;;;;5086508;28;20487;-74
2022/02/04 00:36:33;;;;;;;13.52;8.45;;;;;;;;;;5087340;28;20012;-74
2022/02/04 00:39:03;;;;;;;12.65;7.50;;;;;;;;;;5088051;28;20067;-73
2022/02/04 00:41:33;;;;;;;13.63;8.23;;;;;;;;;;5090885;28;20023;-74
2022/02/04 00:44:01;;;;;;;16.10;8.57;;;;;;;;;;5089890;28;20593;-74
2022/02/04 00:49:19;;;;;;;15.93;9.43;;;;;;;;;;5087079;28;20085;-74
2022/02/04 00:52:12;;;;;;;18.27;8.35;;;;;;;;;;5090280;28;20459;-74
2022/02/04 01:27:25;;;;;;;12.93;6.95;;;;;;;;;;5087436;28;20043;-73
2022/02/04 01:32:17;;;;;;;12.38;6.78;;;;;;;;;;5089705;28;20072;-74
2022/02/04 01:34:43;;;;;;;14.05;7.40;;;;;;;;;;5087101;28;20028;-73
2022/02/04 01:37:09;;;;;;;13.50;6.90;;;;;;;;;;5087382;28;20818;-76
2022/02/04 01:39:35;;;;;;;15.57;7.82;;;;;;;;;;5086799;28;20028;-76
2022/02/04 01:42:01;;;;;;;16.20;7.85;;;;;;;;;;5086978;28;20028;-76
2022/02/04 01:44:28;;;;;;;12.82;7.03;;;;;;;;;;5089714;28;20422;-75
2022/02/04 01:46:54;;;;;;;13.18;7.15;;;;;;;;;;5087938;28;20032;-75
2022/02/04 01:49:24;;;;;;;14.80;7.38;;;;;;;;;;5085440;28;20035;-74
2022/02/04 01:51:50;;;;;;;12.85;7.40;;;;;;;;;;5088468;28;20376;-76
2022/02/04 01:54:16;;;;;;;14.50;6.70;;;;;;;;;;5088088;28;20036;-75
2022/02/04 01:56:42;;;;;;;13.60;6.90;;;;;;;;;;5087616;28;20024;-75
2022/02/04 01:59:08;;;;;;;13.32;7.05;;;;;;;;;;5090117;28;20497;-76
2022/02/04 02:01:34;;;;;;;11.13;6.55;;;;;;;;;;5086790;28;20032;-74
2022/02/04 02:04:02;;;;;;;12.10;6.93;;;;;;;;;;5086577;28;20091;-75
2022/02/04 02:06:46;;;;;;;15.63;7.97;;;;;;;;;;5087080;28;20479;-74
2022/02/04 02:09:13;;;;;;;13.88;7.72;;;;;;;;;;5087003;28;20557;-76
2022/02/04 02:11:39;;;;;;;13.55;7.28;;;;;;;;;;5087608;28;20048;-75
2022/02/04 02:14:09;;;;;;;13.80;7.13;;;;;;;;;;5089524;28;20078;-74
2022/02/04 02:39:14;;;;;;;16.38;8.40;;;;;;;;;;5090585;28;20089;-74
2022/02/04 02:51:51;;;;;;;13.32;7.93;;;;;;;;;;5069345;28;20082;-75
2022/02/04 03:02:16;;;;;;;15.45;7.72;;;;;;;;;;5090170;28;20096;-75
2022/02/04 03:04:41;;;;;;;14.57;7.78;;;;;;;;;;5090226;28;20032;-75
2022/02/04 03:07:07;;;;;;;16.10;7.55;;;;;;;;;;5090292;28;20032;-74
2022/02/04 03:09:33;;;;;;;11.98;6.95;;;;;;;;;;5091462;28;20470;-74
2022/02/04 03:11:59;;;;;;;13.15;6.88;;;;;;;;;;5090132;28;20257;-74
2022/02/04 03:14:27;;;;;;;14.75;7.28;;;;;;;;;;5092669;28;20044;-75
2022/02/04 03:16:53;;;;;;;12.82;7.32;;;;;;;;;;5091013;28;20071;-74
2022/02/04 03:19:22;;;;;;;12.55;7.25;;;;;;;;;;5090417;28;20559;-74
2022/02/04 03:21:48;;;;;;;13.00;6.43;;;;;;;;;;5089472;28;20353;-74
2022/02/04 03:24:19;;;;;;;12.77;6.28;;;;;;;;;;5089837;28;20418;-75
2022/02/04 03:29:11;;;;;;;13.07;7.25;;;;;;;;;;5093120;28;20035;-74
2022/02/04 03:31:45;;;;;;;13.95;6.78;;;;;;;;;;5089430;28;20032;-73
2022/02/04 03:34:11;;;;;;;14.02;7.10;;;;;;;;;;5090590;28;20399;-74
2022/02/04 03:36:37;;;;;;;14.57;6.25;;;;;;;;;;5091174;28;20027;-75
2022/02/04 03:39:04;;;;;;;12.70;6.45;;;;;;;;;;5089386;28;20055;-74
2022/02/04 03:41:29;;;;;;;9.10;5.78;;;;;;;;;;5092344;28;20460;-75
2022/02/04 03:43:55;;;;;;;9.75;5.50;;;;;;;;;;5090847;28;20020;-75
2022/02/04 03:46:21;;;;;;;12.63;5.70;;;;;;;;;;5090569;28;20436;-74
2022/02/04 03:48:48;;;;;;;12.15;5.88;;;;;;;;;;5088177;28;20032;-74
2022/02/04 03:51:14;;;;;;;11.63;5.82;;;;;;;;;;5089566;28;20090;-76
2022/02/04 03:53:40;;;;;;;13.40;6.95;;;;;;;;;;5089708;28;20380;-74
2022/02/04 03:56:07;;;;;;;10.85;6.15;;;;;;;;;;5091779;28;20482;-74
2022/02/04 03:58:36;;;;;;;9.85;5.82;;;;;;;;;;5089254;28;20494;-74
2022/02/04 04:01:03;;;;;;;13.32;6.53;;;;;;;;;;5089063;28;20028;-74
2022/02/04 04:03:29;;;;;;;13.68;6.40;;;;;;;;;;5088291;28;20020;-74
2022/02/04 04:05:55;;;;;;;13.35;6.00;;;;;;;;;;5088622;28;20025;-73
2022/02/04 04:08:21;;;;;;;11.07;6.40;;;;;;;;;;5091737;28;20054;-74
2022/02/04 04:10:50;;;;;;;11.10;6.68;;;;;;;;;;5090109;28;20491;-74
2022/02/04 04:13:16;;;;;;;12.60;6.85;;;;;;;;;;5088475;28;20882;-75
2022/02/04 04:15:42;;;;;;;12.65;6.82;;;;;;;;;;5088791;28;20028;-73
2022/02/04 04:18:12;;;;;;;12.55;6.80;;;;;;;;;;5088476;28;20083;-74
2022/02/04 04:20:38;;;;;;;11.15;6.38;;;;;;;;;;5090376;28;20059;-74
2022/02/04 04:23:04;;;;;;;13.73;7.88;;;;;;;;;;5091143;28;20053;-74
2022/02/04 04:25:30;;;;;;;10.70;6.35;;;;;;;;;;5088224;28;20055;-65
2022/02/04 04:27:56;;;;;;;13.48;6.70;;;;;;;;;;5088313;28;20046;-68
2022/02/04 04:30:23;;;;;;;14.38;6.97;;;;;;;;;;5088805;28;20030;-68
2022/02/04 04:32:50;;;;;;;10.30;6.05;;;;;;;;;;5090610;28;20032;-68
2022/02/04 04:35:19;;;;;;;11.18;5.95;;;;;;;;;;5083172;28;20085;-68
2022/02/04 04:37:50;;;;;;;13.85;6.65;;;;;;;;;;5086097;28;20016;-68
2022/02/04 04:43:00;;;;;;;10.52;5.55;;;;;;;;;;5085434;28;20032;-68
2022/02/04 04:45:56;;;;;;;10.05;5.40;;;;;;;;;;5084247;28;20099;-67
2022/02/04 05:29:18;;;;;;;11.85;6.28;;;;;;;;;;5087092;28;20028;-70
2022/02/04 05:31:44;;;;;;;10.73;5.63;;;;;;;;;;5087833;28;20059;-70
2022/02/04 05:34:11;;;;;;;13.30;6.22;;;;;;;;;;5086877;28;20040;-70
2022/02/04 05:36:42;;;;;;;9.90;5.10;;;;;;;;;;5086998;28;20043;-71
2022/02/04 05:39:10;;;;;;;10.57;6.13;;;;;;;;;;5087399;28;20479;-71
2022/02/04 05:41:40;;;;;;;12.70;6.28;;;;;;;;;;5088790;28;20062;-71
2022/02/04 05:44:10;;;;;;;10.80;5.88;;;;;;;;;;5089447;28;20024;-71
2022/02/04 05:46:57;;;;;;;10.20;5.47;;;;;;;;;;5087137;28;20028;-71
2022/02/04 05:49:25;;;;;;;11.82;5.57;;;;;;;;;;5085762;28;20228;-71
2022/02/04 05:57:11;;;;;;;11.18;6.13;;;;;;;;;;5072900;28;20031;-71
2022/02/04 06:03:17;;;;;;;10.80;6.03;;;;;;;;;;5086335;28;20077;-68
2022/02/04 06:05:28;;;;;;;11.55;6.22;;;;;;;;;;5084088;28;20056;-68
2022/02/04 06:23:38;;;;;;;14.93;6.35;;;;;;;;;;5088016;28;20039;-68
2022/02/04 06:26:04;;;;;;;13.27;6.55;;;;;;;;;;5083491;28;20032;-68
2022/02/04 06:28:30;;;;;;;13.90;7.35;;;;;;;;;;5085128;28;20038;-67
2022/02/04 06:30:56;;;;;;;13.40;6.85;;;;;;;;;;5085820;28;20139;-68
2022/02/04 06:33:22;;;;;;;12.18;6.13;;;;;;;;;;5086009;28;20111;-67
2022/02/04 06:35:48;;;;;;;12.38;7.13;;;;;;;;;;5086114;28;20095;-68
2022/02/04 06:38:14;;;;;;;15.07;7.78;;;;;;;;;;5090015;28;20425;-68
2022/02/04 06:40:40;;;;;;;16.48;7.32;;;;;;;;;;5086371;28;20032;-67
2022/02/04 06:43:06;;;;;;;11.80;7.15;;;;;;;;;;5084354;28;20101;-67
2022/02/04 06:45:32;;;;;;;11.70;6.40;;;;;;;;;;5083902;28;20032;-68
2022/02/04 06:47:58;;;;;;;11.60;5.95;;;;;;;;;;5081431;28;20034;-68
2022/02/04 06:50:24;;;;;;;11.98;5.97;;;;;;;;;;5085920;28;20550;-67
2022/02/04 06:52:53;;;;;;;12.10;5.82;;;;;;;;;;5080311;28;20033;-68
2022/02/04 06:55:20;;;;;;;13.05;6.97;;;;;;;;;;5082679;28;20032;-67
2022/02/04 06:57:47;;;;;;;11.43;6.40;;;;;;;;;;5086265;28;20016;-68
2022/02/04 07:00:14;;;;;;;10.38;5.63;;;;;;;;;;5086147;28;20074;-67
2022/02/04 07:02:40;;;;;;;11.50;6.05;;;;;;;;;;5087669;28;20040;-67
2022/02/04 07:05:12;;;;;;;12.48;6.25;;;;;;;;;;5088792;28;20024;-68
2022/02/04 07:07:41;;;;;;;13.93;6.65;;;;;;;;;;5085837;28;20478;-67
2022/02/04 07:10:15;;;;;;;;;;;;;;;;;;5086382;28;20078;-67
2022/02/04 07:12:52;;;;;;;10.18;5.05;;;;;;;;;;5086170;28;19923;-67
2022/02/04 07:15:46;;;;;;;11.05;5.78;;;;;;;;;;5085986;28;20491;-67
2022/02/04 07:20:57;;;;;;;10.50;5.40;;;;;;;;;;5073853;28;20189;-72
2022/02/04 07:23:23;;;;;;;13.45;6.57;;;;;;;;;;5088716;28;20546;-71
2022/02/04 07:25:49;;;;;;;11.43;5.63;;;;;;;;;;5087052;28;20032;-71
2022/02/04 07:28:15;;;;;;;15.70;6.55;;;;;;;;;;5086117;28;20127;-71
2022/02/04 07:30:43;;;;;;;9.38;5.57;;;;;;;;;;5086115;28;20133;-72
2022/02/04 07:33:17;;;;;;;9.67;5.37;;;;;;;;;;5082996;28;20020;-72
2022/02/04 07:41:13;;;;;;;10.02;4.60;;;;;;;;;;5093621;28;20070;-72
2022/02/04 07:43:39;;;;;;;8.55;4.55;;;;;;;;;;5089698;28;20078;-72
2022/02/04 07:46:05;;;;;;;10.30;5.25;;;;;;;;;;5090877;28;20463;-72
2022/02/04 07:48:31;;;;;;;8.48;4.50;;;;;;;;;;5087891;28;20391;-72
2022/02/04 07:50:57;;;;;;;9.75;5.10;;;;;;;;;;5089502;28;20108;-72
2022/02/04 07:53:30;;;;;;;11.50;5.57;;;;;;;;;;5091742;28;20028;-71
2022/02/04 07:55:57;;;;;;;8.10;5.22;;;;;;;;;;5088090;28;20044;-72
2022/02/04 07:58:23;;;;;;;8.98;5.32;;;;;;;;;;5085910;28;20486;-72
2022/02/04 08:00:50;;;;;;;10.40;5.72;;;;;;;;;;5089189;28;20060;-71
2022/02/04 08:05:42;;;;;;;8.25;4.55;;;;;;;;;;5089616;28;20120;-72
2022/02/04 08:08:24;;;;;;;7.90;4.43;;;;;;;;;;5091792;28;20024;-71
2022/02/04 08:14:09;;;;;;;8.45;4.53;;;;;;;;;;5088593;28;20052;-70
2022/02/04 08:19:23;;;;;;;8.00;4.65;;;;;;;;;;5091419;28;20115;-70
2022/02/04 08:51:02;;;;;;;7.40;4.30;;;;;;;;;;5088528;28;20115;-71
2022/02/04 08:55:58;;;;;;;8.38;4.03;;;;;;;;;;5088975;28;20039;-73
2022/02/04 09:01:26;;;;;;;7.28;4.03;;;;;;;;;;5073454;28;20040;-73
2022/02/04 09:04:03;;;;;;;7.78;3.55;;;;;;;;;;5085441;28;20051;-73
2022/02/04 09:06:36;;;;;;;6.07;3.53;;;;;;;;;;5086984;28;20016;-74
2022/02/04 09:09:05;;;;;;;6.60;4.05;;;;;;;;;;5086806;28;20464;-73
2022/02/04 09:17:13;;;;;;;8.73;4.40;;;;;;;;;;5090959;28;20120;-73
2022/02/04 09:19:46;;;;;;;6.47;3.85;;;;;;;;;;5087328;28;20031;-74
2022/02/04 09:24:58;;;;;;;7.72;4.75;;;;;;;;;;5086719;28;20457;-73
2022/02/04 09:27:24;;;;;;;7.63;4.43;;;;;;;;;;5086970;28;20035;-74
2022/02/04 09:29:50;;;;;;;6.70;4.07;;;;;;;;;;5087063;28;20387;-74
2022/02/04 09:32:17;;;;;;;8.10;3.17;;;;;;;;;;5090901;28;20032;-74
2022/02/04 09:34:43;;;;;;;5.35;3.03;;;;;;;;;;5087669;28;20146;-74
2022/02/04 09:37:09;;;;;;;5.63;3.00;;;;;;;;;;5088837;28;20056;-74
2022/02/04 09:39:35;;;;;;;5.57;2.80;;;;;;;;;;5087121;28;20104;-74
2022/02/04 09:42:01;;;;;;;8.15;3.95;;;;;;;;;;5087166;28;20115;-74
2022/02/04 09:44:26;;;;;;;6.43;3.25;;;;;;;;;;5089626;28;20016;-74
2022/02/04 09:46:55;;;;;;;5.90;3.65;;;;;;;;;;5088664;28;20034;-74
2022/02/04 09:49:28;;;;;;;6.43;3.03;;;;;;;;;;5085398;28;20427;-74
2022/02/04 10:08:41;;;;;;;5.63;2.70;;;;;;;;;;5089861;28;20100;-74
2022/02/04 10:14:06;;;;;;;10.90;2.65;;;;;;;;;;5087316;28;20499;-74
2022/02/04 10:19:39;;;;;;;3.88;2.10;;;;;;;;;;5086769;28;20133;-74
2022/02/04 10:22:05;;;;;;;;;;;;;;;;;;5082289;28;20051;-74
2022/02/04 10:24:32;;;;;;;3.83;2.00;;;;;;;;;;5086454;28;20026;-74
2022/02/04 10:27:17;;;;;;;5.72;2.10;;;;;;;;;;5086914;28;20032;-73
2022/02/04 10:29:44;;;;;;;4.22;2.40;;;;;;;;;;5087412;28;20021;-72
2022/02/04 10:32:10;;;;;;;5.03;2.47;;;;;;;;;;5089284;28;20020;-73
2022/02/04 10:34:39;;;;;;;3.95;2.10;;;;;;;;;;5086519;28;20042;-72
2022/02/04 10:37:19;;;;;;;4.20;2.03;;;;;;;;;;5086379;28;20020;-72
2022/02/04 10:39:56;;;;;;;4.05;2.28;;;;;;;;;;5086252;28;20467;-74
2022/02/04 10:45:33;;;;;;;3.42;2.15;;;;;;;;;;5086453;28;20050;-73
2022/02/04 10:53:47;;;;;;;6.82;2.65;;;;;;;;;;5089169;28;20024;-72
2022/02/04 11:03:57;;;;;;;4.82;1.70;;;;;;;;;;5085917;28;20032;-73
2022/02/04 11:09:09;;;;;;;5.47;2.47;;;;;;;;;;5086375;28;20025;-73
2022/02/04 11:36:08;;;;;;;3.20;1.90;;;;;;;;;;5088896;28;20032;-72
2022/02/04 11:54:54;;;;;;;5.45;3.35;;;;;;;;;;5087251;28;20032;-72
2022/02/04 11:57:22;;;;;;;7.88;4.03;;;;;;;;;;5089986;28;20073;-68
2022/02/04 11:59:50;;;;;;;11.02;3.33;;;;;;;;;;5074067;28;20028;-68
2022/02/04 12:02:25;;;;;;;6.70;3.17;;;;;;;;;;5091940;28;20027;-68
2022/02/04 12:07:36;;;;;;;6.13;3.20;;;;;;;;;;5088628;28;20036;-69
2022/02/04 12:10:21;;;;;;;7.22;3.15;;;;;;;;;;5087707;28;20036;-70
2022/02/04 12:12:53;;;;;;;4.88;2.70;;;;;;;;;;5087057;28;20068;-70
2022/02/04 12:15:30;;;;;;;8.18;4.93;;;;;;;;;;5084513;28;20040;-67
2022/02/04 12:17:59;;;;;;;8.38;4.97;;;;;;;;;;5072704;28;20119;-69
2022/02/04 12:20:44;;;;;;;6.95;4.00;;;;;;;;;;5090078;28;20081;-74
2022/02/04 12:23:10;;;;;;;5.82;3.92;;;;;;;;;;5090144;28;20039;-75
2022/02/04 12:25:55;;;;;;;7.57;4.20;;;;;;;;;;5086866;28;20490;-74
2022/02/04 12:28:36;;;;;;;7.22;4.05;;;;;;;;;;5087211;28;20039;-74
2022/02/04 12:31:06;;;;;;;7.30;3.95;;;;;;;;;;5088037;28;20157;-75
2022/02/04 12:33:39;;;;;;;6.50;3.50;;;;;;;;;;5087286;28;20044;-75
2022/02/04 12:36:05;;;;;;;8.70;3.88;;;;;;;;;;5084306;28;20032;-74
2022/02/04 12:38:31;;;;;;;7.75;4.35;;;;;;;;;;5090811;28;20708;-74
2022/02/04 12:40:58;;;;;;;7.05;4.40;;;;;;;;;;5088801;28;20082;-74
2022/02/04 12:43:27;;;;;;;9.70;5.10;;;;;;;;;;5088292;28;20085;-75
2022/02/04 12:45:53;;;;;;;10.73;6.13;;;;;;;;;;5088530;28;20027;-75
2022/02/04 12:48:19;;;;;;;10.95;6.18;;;;;;;;;;5089180;28;20028;-75
2022/02/04 12:50:55;;;;;;;12.05;5.72;;;;;;;;;;5072245;28;20099;-76
2022/02/04 12:53:25;;;;;;;10.68;5.93;;;;;;;;;;5086381;28;20035;-74
2022/02/04 13:09:51;;;;;;;10.40;5.60;;;;;;;;;;5087849;28;20039;-76
2022/02/04 13:12:18;;;;;;;11.52;5.43;;;;;;;;;;5087710;28;20032;-76
2022/02/04 13:14:45;;;;;;;9.68;5.32;;;;;;;;;;5088427;28;20032;-75
2022/02/04 13:17:11;;;;;;;11.40;6.45;;;;;;;;;;5091470;28;20483;-74
2022/02/04 13:19:37;;;;;;;10.77;5.75;;;;;;;;;;5087970;28;20724;-74
2022/02/04 13:22:03;;;;;;;10.05;5.95;;;;;;;;;;5087955;28;20020;-74
2022/02/04 13:24:29;;;;;;;10.20;5.65;;;;;;;;;;5087365;28;20475;-74
2022/02/04 13:26:55;;;;;;;10.52;5.80;;;;;;;;;;5088308;28;20025;-74
2022/02/04 13:29:27;;;;;;;10.13;5.70;;;;;;;;;;5090557;28;20089;-74
2022/02/04 13:31:53;;;;;;;11.48;6.57;;;;;;;;;;5090816;28;20020;-74
2022/02/04 13:34:25;;;;;;;10.90;6.30;;;;;;;;;;5087573;28;20587;-74
2022/02/04 13:36:55;;;;;;;12.38;6.60;;;;;;;;;;5087460;28;20020;-75
2022/02/04 13:39:46;;;;;;;11.38;6.18;;;;;;;;;;5087483;28;20032;-74
2022/02/04 13:42:25;;;;;;;12.38;6.50;;;;;;;;;;5090262;28;20020;-74
2022/02/04 13:44:59;;;;;;;10.75;6.18;;;;;;;;;;5071571;28;20024;-76
2022/02/04 13:47:42;;;;;;;12.88;7.10;;;;;;;;;;5090329;28;20059;-73
2022/02/04 13:58:10;;;;;;;14.63;6.80;;;;;;;;;;5087874;28;20134;-74
2022/02/04 14:00:50;;;;;;;16.63;7.60;;;;;;;;;;5087639;28;20020;-75
2022/02/04 14:03:20;;;;;;;13.45;7.90;;;;;;;;;;5086529;28;20483;-74
2022/02/04 14:06:12;;;;;;;15.60;7.85;;;;;;;;;;5071994;28;20028;-73
2022/02/04 14:08:48;;;;;;;17.65;7.63;;;;;;;;;;5087398;28;20035;-74
2022/02/04 14:11:25;;;;;;;14.57;7.90;;;;;;;;;;5086721;28;20430;-75
2022/02/04 14:13:53;;;;;;;12.93;7.20;;;;;;;;;;5089457;28;20083;-75
2022/02/04 14:16:20;;;;;;;16.05;8.23;;;;;;;;;;5087036;28;20125;-74
2022/02/04 14:18:47;;;;;;;16.07;8.43;;;;;;;;;;5087240;28;20028;-74
2022/02/04 14:21:13;;;;;;;16.65;7.85;;;;;;;;;;5087346;28;20031;-74
2022/02/04 14:23:40;;;;;;;15.40;7.97;;;;;;;;;;5088491;28;20151;-74
2022/02/04 14:26:16;;;;;;;15.70;8.07;;;;;;;;;;5089544;28;20410;-75
2022/02/04 15:03:28;;;;;;;12.38;7.43;;;;;;;;;;5090718;28;20039;-75
2022/02/04 15:06:10;;;;;;;13.00;6.65;;;;;;;;;;5091035;28;20032;-74
2022/02/04 15:08:37;;;;;;;14.63;6.68;;;;;;;;;;5092388;28;20016;-75
2022/02/04 15:11:11;;;;;;;13.88;8.10;;;;;;;;;;5092339;28;20085;-74
2022/02/04 15:13:37;;;;;;;17.17;9.10;;;;;;;;;;5090490;28;20437;-75
2022/02/04 15:16:07;;;;;;;17.20;8.63;;;;;;;;;;5092391;28;20039;-74
2022/02/04 15:18:33;;;;;;;19.85;9.27;;;;;;;;;;5090359;28;20046;-75
2022/02/04 15:21:00;;;;;;;14.82;7.85;;;;;;;;;;5091723;28;20028;-74
2022/02/04 15:23:27;;;;;;;15.38;8.52;;;;;;;;;;5092839;28;20491;-76
2022/02/04 15:25:55;;;;;;;23.65;9.13;;;;;;;;;;5091357;28;20418;-74
2022/02/04 15:30:48;;;;;;;17.25;7.45;;;;;;;;;;5090420;28;20027;-75
2022/02/04 15:33:14;;;;;;;14.93;7.72;;;;;;;;;;5087515;28;20027;-73
2022/02/04 15:35:41;;;;;;;19.88;8.38;;;;;;;;;;5083905;28;23066;-75
2022/02/04 15:38:09;;;;;;;13.93;7.28;;;;;;;;;;5087932;28;20017;-73
2022/02/04 15:40:35;;;;;;;17.20;7.82;;;;;;;;;;5089782;28;20027;-73
2022/02/04 15:43:04;;;;;;;18.50;9.15;;;;;;;;;;5083637;28;20032;-73
2022/02/04 15:53:37;;;;;;;16.80;7.38;;;;;;;;;;5089391;28;20088;-73
2022/02/04 15:56:18;;;;;;;12.63;6.85;;;;;;;;;;5091910;28;20024;-74
2022/02/04 15:59:03;;;;;;;12.30;6.30;;;;;;;;;;5086151;28;20070;-76
2022/02/04 16:01:46;;;;;;;13.27;6.55;;;;;;;;;;5086636;28;20106;-73
2022/02/04 16:06:44;;;;;;;16.20;8.05;;;;;;;;;;5089076;28;20027;-75
2022/02/04 16:09:10;;;;;;;16.73;8.43;;;;;;;;;;5088680;28;20021;-74
2022/02/04 16:16:42;;;;;;;19.20;9.88;;;;;;;;;;5088278;28;20050;-71
2022/02/04 16:29:39;;;;;;;20.17;11.25;;;;;;;;;;5089053;28;20406;-73
2022/02/04 16:32:05;;;;;;;13.10;7.13;;;;;;;;;;5090352;28;20056;-72
2022/02/04 16:34:31;;;;;;;11.02;5.38;;;;;;;;;;5087206;28;20453;-72
2022/02/04 16:37:04;;;;;;;10.95;5.18;;;;;;;;;;5086240;28;20024;-71
2022/02/04 16:39:31;;;;;;;15.68;9.20;;;;;;;;;;5088236;28;20111;-73
2022/02/04 16:42:10;;;;;;;15.73;8.30;;;;;;;;;;5086719;28;20020;-73
2022/02/04 16:44:36;;;;;;;16.67;8.60;;;;;;;;;;5088861;28;20021;-72
2022/02/04 16:47:03;;;;;;;18.30;10.40;;;;;;;;;;5083036;28;20471;-71
2022/02/04 16:49:29;;;;;;;17.58;9.80;;;;;;;;;;5080691;28;20024;-72
2022/02/04 16:51:55;;;;;;;18.40;10.07;;;;;;;;;;5087724;28;20395;-71
2022/02/04 16:54:23;;;;;;;16.00;9.20;;;;;;;;;;5086303;28;20047;-71
2022/02/04 16:56:49;;;;;;;13.82;7.65;;;;;;;;;;5086183;28;20088;-71
2022/02/04 16:59:15;;;;;;;15.52;9.73;;;;;;;;;;5090343;28;20028;-71
2022/02/04 17:01:41;;;;;;;15.00;9.70;;;;;;;;;;5086470;28;20031;-72
2022/02/04 17:04:07;;;;;;;16.92;9.30;;;;;;;;;;5083408;28;20016;-72
2022/02/04 17:06:38;;;;;;;22.73;10.00;;;;;;;;;;5089139;28;20031;-72
2022/02/04 17:09:20;;;;;;;16.30;8.82;;;;;;;;;;5088411;28;20031;-73
2022/02/04 17:11:49;;;;;;;16.17;8.10;;;;;;;;;;5088433;28;20664;-71
2022/02/04 17:14:15;;;;;;;;;;;;;;;;;;5089403;28;20097;-71
2022/02/04 17:16:42;;;;;;;14.77;6.82;;;;;;;;;;5085932;28;20329;-71
2022/02/04 17:19:22;;;;;;;16.02;8.35;;;;;;;;;;5068554;28;20030;-71
2022/02/04 17:21:49;;;;;;;15.57;8.68;;;;;;;;;;5087281;28;20101;-71
2022/02/04 17:24:16;;;;;;;19.63;8.52;;;;;;;;;;5088743;28;20099;-71
2022/02/04 17:26:42;;;;;;;20.13;8.88;;;;;;;;;;5089190;28;20162;-71
2022/02/04 17:29:09;;;;;;;17.45;8.77;;;;;;;;;;5085565;28;20020;-71
2022/02/04 17:31:35;;;;;;;18.52;8.23;;;;;;;;;;5083303;28;20028;-71
2022/02/04 17:34:01;;;;;;;19.35;8.88;;;;;;;;;;5084934;28;20534;-72
2022/02/04 17:36:27;;;;;;;17.90;9.25;;;;;;;;;;5083541;28;20028;-71
2022/02/04 17:38:56;;;;;;;16.75;8.43;;;;;;;;;;5086674;28;20063;-71
2022/02/04 17:41:22;;;;;;;18.90;11.30;;;;;;;;;;5089074;28;20028;-71
2022/02/04 17:43:48;;;;;;;21.20;11.93;;;;;;;;;;5084736;28;20099;-72
2022/02/04 17:46:15;;;;;;;20.00;11.52;;;;;;;;;;5084580;28;20032;-71
2022/02/04 17:48:54;;;;;;;26.98;17.60;;;;;;;;;;5086387;28;20083;-71
2022/02/04 17:51:32;;;;;;;29.65;17.08;;;;;;;;;;5086004;28;20031;-71
2022/02/04 17:54:02;;;;;;;;;;;;;;;;;;5071579;28;20036;-71
2022/02/04 17:56:49;;;;;;;22.23;12.23;;;;;;;;;;5087851;28;19912;-71
2022/02/04 18:01:57;;;;;;;25.13;13.50;;;;;;;;;;5086193;28;20067;-71
2022/02/04 18:07:12;;;;;;;28.42;16.60;;;;;;;;;;5085958;28;20167;-73
2022/02/04 18:09:39;;;;;;;20.52;12.07;;;;;;;;;;5086333;28;20471;-70
2022/02/04 18:12:06;;;;;;;18.25;10.90;;;;;;;;;;5079642;28;20027;-70
2022/02/04 18:14:32;;;;;;;26.55;15.55;;;;;;;;;;5081386;28;20039;-73
2022/02/04 18:16:58;;;;;;;32.03;17.33;;;;;;;;;;5083650;28;20024;-73
2022/02/04 18:19:24;;;;;;;27.70;15.85;;;;;;;;;;5085876;28;20035;-73
2022/02/04 18:21:50;;;;;;;27.95;15.00;;;;;;;;;;5085571;28;20024;-71
2022/02/04 18:24:17;;;;;;;20.20;12.07;;;;;;;;;;5084379;28;20029;-71
2022/02/04 18:26:44;;;;;;;21.83;11.60;;;;;;;;;;5087559;28;20013;-71
2022/02/04 18:29:12;;;;;;;22.95;11.95;;;;;;;;;;5089061;28;20032;-72
2022/02/04 18:31:38;;;;;;;16.80;9.93;;;;;;;;;;5086763;28;20028;-71
2022/02/04 18:34:05;;;;;;;19.38;10.25;;;;;;;;;;5086292;28;20043;-68
2022/02/04 18:36:31;;;;;;;19.13;10.05;;;;;;;;;;5081544;28;20017;-68
2022/02/04 18:44:23;;;;;;;18.23;10.40;;;;;;;;;;5089635;28;20065;-69
2022/02/04 18:59:18;;;;;;;18.45;11.25;;;;;;;;;;5088426;28;20032;-77
2022/02/04 19:01:46;;;;;;;21.35;11.77;;;;;;;;;;5086592;28;20522;-77
2022/02/04 19:04:16;;;;;;;18.30;11.43;;;;;;;;;;5085906;28;20039;-76
2022/02/04 19:06:48;;;;;;;35.75;20.35;;;;;;;;;;5083702;28;20039;-75
2022/02/04 19:09:14;;;;;;;25.17;14.35;;;;;;;;;;5078537;28;20021;-75
2022/02/04 19:11:48;;;;;;;23.02;13.30;;;;;;;;;;5074628;28;20032;-74
2022/02/04 19:14:19;;;;;;;19.88;10.57;;;;;;;;;;5089015;28;20048;-76
2022/02/04 19:24:36;;;;;;;15.52;8.32;;;;;;;;;;5085438;28;20032;-68
2022/02/04 19:27:02;;;;;;;19.35;10.52;;;;;;;;;;5080516;28;20842;-66
2022/02/04 19:29:29;;;;;;;18.20;10.38;;;;;;;;;;5078086;28;20029;-66
2022/02/04 19:31:56;;;;;;;22.05;12.98;;;;;;;;;;5080835;28;20448;-67
2022/02/04 19:34:26;;;;;;;25.03;14.20;;;;;;;;;;5083510;28;20439;-66
2022/02/04 19:36:54;;;;;;;25.05;13.35;;;;;;;;;;5083879;28;20272;-67
2022/02/04 19:39:20;;;;;;;21.67;12.70;;;;;;;;;;5084226;28;20086;-65
2022/02/04 19:41:58;;;;;;;19.60;11.70;;;;;;;;;;5080469;28;20020;-67
2022/02/04 19:44:24;;;;;;;18.23;11.50;;;;;;;;;;5082127;28;20115;-66
2022/02/04 19:46:54;;;;;;;28.38;12.35;;;;;;;;;;5084342;28;20120;-65
2022/02/04 19:49:24;;;;;;;18.75;11.23;;;;;;;;;;5082362;28;20024;-68
2022/02/04 19:52:04;;;;;;;21.13;12.40;;;;;;;;;;5083263;28;20463;-68
2022/02/04 19:54:56;;;;;;;22.58;11.57;;;;;;;;;;5081087;28;20032;-69
2022/02/04 20:26:58;;;;;;;31.10;16.73;;;;;;;;;;5072787;28;20112;-68
2022/02/04 20:29:24;;;;;;;33.55;17.77;;;;;;;;;;5089552;28;20115;-68
2022/02/04 20:31:50;;;;;;;28.05;14.70;;;;;;;;;;5087861;28;20038;-72
2022/02/04 20:34:16;;;;;;;30.33;16.48;;;;;;;;;;5087336;28;20085;-69
2022/02/04 20:36:42;;;;;;;27.55;15.05;;;;;;;;;;5084628;28;20030;-69
2022/02/04 20:39:11;;;;;;;25.45;15.60;;;;;;;;;;5080836;28;20051;-69
2022/02/04 20:41:37;;;;;;;51.50;25.60;;;;;;;;;;5081603;28;20479;-69
2022/02/04 20:44:03;;;;;;;36.33;19.00;;;;;;;;;;5084049;28;20016;-70
2022/02/04 20:46:30;;;;;;;27.02;14.90;;;;;;;;;;5082660;28;20063;-70
2022/02/04 20:48:56;;;;;;;23.58;14.57;;;;;;;;;;5083324;28;20040;-69
2022/02/04 20:51:22;;;;;;;30.13;16.95;;;;;;;;;;5082428;28;20043;-69
2022/02/04 20:53:48;;;;;;;29.35;15.80;;;;;;;;;;5080889;28;20098;-69
2022/02/04 20:56:14;;;;;;;24.42;12.05;;;;;;;;;;5083689;28;20027;-69
2022/02/04 20:58:40;;;;;;;31.10;16.20;;;;;;;;;;5082922;28;20028;-69
2022/02/04 21:01:12;;;;;;;33.28;17.45;;;;;;;;;;5082411;28;20028;-68
2022/02/04 21:03:40;;;;;;;32.28;19.80;;;;;;;;;;5083659;28;20496;-69
2022/02/04 21:06:17;;;;;;;20.50;10.75;;;;;;;;;;5080369;28;20035;-68
2022/02/04 21:09:03;;;;;;;25.02;13.02;;;;;;;;;;5080689;28;20020;-67
2022/02/04 21:14:33;;;;;;;17.00;9.30;;;;;;;;;;5084957;28;20093;-68
2022/02/04 21:16:59;;;;;;;26.45;13.68;;;;;;;;;;5083619;28;20103;-68
2022/02/04 21:19:25;;;;;;;26.90;13.60;;;;;;;;;;5087077;28;20024;-68
2022/02/04 21:21:51;;;;;;;22.13;13.13;;;;;;;;;;5087690;28;20480;-68
2022/02/04 21:24:17;;;;;;;22.98;12.88;;;;;;;;;;5089619;28;20028;-68
2022/02/04 21:26:44;;;;;;;21.98;12.38;;;;;;;;;;5088861;28;20044;-69
2022/02/04 21:29:10;;;;;;;22.55;12.10;;;;;;;;;;5090727;28;20432;-69
2022/02/04 21:31:41;;;;;;;23.85;12.30;;;;;;;;;;5087901;28;20027;-68
2022/02/04 21:34:15;;;;;;;24.45;12.43;;;;;;;;;;5087817;28;20032;-68
2022/02/04 21:36:59;;;;;;;22.38;12.38;;;;;;;;;;5088791;28;20022;-68
2022/02/04 21:39:25;;;;;;;22.65;10.98;;;;;;;;;;5088496;28;20027;-69
2022/02/04 21:41:51;;;;;;;19.52;11.02;;;;;;;;;;5087415;28;20032;-69
2022/02/04 21:44:17;;;;;;;25.48;11.68;;;;;;;;;;5091082;28;20340;-68
2022/02/04 21:46:43;;;;;;;19.80;11.27;;;;;;;;;;5089287;28;20456;-68
2022/02/04 21:49:09;;;;;;;19.70;11.88;;;;;;;;;;5086869;28;20124;-68
2022/02/04 21:51:35;;;;;;;25.88;13.52;;;;;;;;;;5086212;28;20028;-68
2022/02/04 21:54:01;;;;;;;26.23;14.98;;;;;;;;;;5089421;28;20047;-67
2022/02/04 21:56:27;;;;;;;26.40;14.00;;;;;;;;;;5088893;28;20063;-68
2022/02/04 21:58:54;;;;;;;24.20;13.93;;;;;;;;;;5088282;28;20455;-68
2022/02/04 22:01:20;;;;;;;26.63;14.15;;;;;;;;;;5089331;28;20028;-68
2022/02/04 22:03:46;;;;;;;24.73;13.13;;;;;;;;;;5088371;28;20036;-69
2022/02/04 22:06:12;;;;;;;22.15;12.65;;;;;;;;;;5089552;28;20082;-68
2022/02/04 22:08:48;;;;;;;22.63;12.77;;;;;;;;;;5088714;28;20036;-68
2022/02/04 22:22:12;;;;;;;21.33;10.88;;;;;;;;;;5080545;28;20039;-68
2022/02/04 22:24:38;;;;;;;23.38;12.77;;;;;;;;;;5082255;28;20103;-68
2022/02/04 22:27:06;;;;;;;29.00;13.63;;;;;;;;;;5087103;28;20155;-68
2022/02/04 22:29:36;;;;;;;29.52;18.20;;;;;;;;;;5088978;28;20105;-68
2022/02/04 22:32:07;;;;;;;31.30;15.98;;;;;;;;;;5089192;28;20426;-68
2022/02/04 22:45:29;;;;;;;27.00;12.95;;;;;;;;;;5072436;28;20036;-68
2022/02/04 22:50:43;;;;;;;20.23;11.38;;;;;;;;;;5089305;28;20020;-68
2022/02/04 22:58:45;;;;;;;20.17;10.88;;;;;;;;;;5087535;28;20044;-68